Jack Robertson — WDE5993 — position and weather

sailwx.info

Track history (hours):
 
Tides and Currents Weather Stations Pressure Air Temp Water Temp Dewpoint Dewpoint Depression Visibility Wind Speed Wind Dir Waves Ship Positions

Oceanographic research ship Jack Robertson (United States)

Owner: University of Washington Applied Physics Laboratory, Seattle, WA. More information available from US FCC via Universal Licensing System and Coast Guard Vessel Documentation Center.

Last reported at 2020-Mar-09 23:31 UTC. Time now 2020-Apr-07 16:26 UTC.
Position N 47°39' W 122°19'.
Warning: this ship's position is 28 days out of date.

; draft 1 m.

Type: Other ship. MMSI: 367374350.

Date/timePositionNaut miles runAvg speedWind from/ knotsBaromVisibWave heightAir tempDewpointWater temp
2020-Mar-09 23:31N 47°39' W 122°19'0 0.0
2020-Mar-09 23:30N 47°39' W 122°19'  
2020-Mar-07 03:01N 47°39' W 122°19'0 0.8
2020-Mar-07 02:31N 47°39' W 122°19'3 0.9
2020-Mar-06 23:29N 47°40' W 122°15'3 3.1
2020-Mar-06 22:30N 47°39' W 122°19'7 2.0
2020-Mar-06 19:00N 47°46' W 122°24'0 0.2
2020-Mar-06 18:00N 47°46' W 122°24'5 2.4
2020-Mar-06 16:00N 47°41' W 122°24'1 0.1
2020-Mar-06 01:30N 47°42' W 122°25'4 7.9
2020-Mar-06 01:00N 47°46' W 122°25'8 8.3
2020-Mar-06 00:00N 47°53' W 122°21'2 0.3
2020-Mar-05 16:31N 47°56' W 122°20'13 8.7
2020-Mar-05 15:01N 47°43' W 122°25'5 0.3
2020-Mar-04 23:00N 47°39' W 122°21'1 0.1
2020-Mar-04 17:00N 47°39' W 122°20'1 0.6
2020-Mar-04 16:00N 47°39' W 122°19'0 0.0
2020-Mar-04 15:30N 47°39' W 122°19'  
Track history (hours):
 
Tides and Currents Weather Stations Pressure Air Temp Water Temp Dewpoint Dewpoint Depression Visibility Wind Speed Wind Dir Waves Ship Positions

Oceanographic research ship Jack Robertson (United States)

Owner: University of Washington Applied Physics Laboratory, Seattle, WA. More information available from US FCC via Universal Licensing System and Coast Guard Vessel Documentation Center.

Last reported at 2020-Mar-09 23:31 UTC. Time now 2020-Apr-07 16:26 UTC.
Position N 47°39' W 122°19'.
Warning: this ship's position is 28 days out of date.

; draft 1 m.

Type: Other ship. MMSI: 367374350.

Date/timePositionNaut miles runAvg speedWind from/ knotsBaromVisibWave heightAir tempDewpointWater temp
2020-Mar-09 23:31N 47°39' W 122°19'0 0.0
2020-Mar-09 23:30N 47°39' W 122°19'  
2020-Mar-07 03:01N 47°39' W 122°19'0 0.8
2020-Mar-07 02:31N 47°39' W 122°19'3 0.9
2020-Mar-06 23:29N 47°40' W 122°15'3 3.1
2020-Mar-06 22:30N 47°39' W 122°19'7 2.0
2020-Mar-06 19:00N 47°46' W 122°24'0 0.2
2020-Mar-06 18:00N 47°46' W 122°24'5 2.4
2020-Mar-06 16:00N 47°41' W 122°24'1 0.1
2020-Mar-06 01:30N 47°42' W 122°25'4 7.9
2020-Mar-06 01:00N 47°46' W 122°25'8 8.3
2020-Mar-06 00:00N 47°53' W 122°21'2 0.3
2020-Mar-05 16:31N 47°56' W 122°20'13 8.7
2020-Mar-05 15:01N 47°43' W 122°25'5 0.3
2020-Mar-04 23:00N 47°39' W 122°21'1 0.1
2020-Mar-04 17:00N 47°39' W 122°20'1 0.6
2020-Mar-04 16:00N 47°39' W 122°19'0 0.0
2020-Mar-04 15:30N 47°39' W 122°19'  

Dump ship's entire track history